Main page
METAR-TAF:

METAR-TAF

Airports :

Bonriki International Airport

Tarawa, Kiribati

latitude: 01-21N, longitude: 172-55E, elevation: 2 m

Current weather observation

The report was made 30 minutes ago, at 06:00 UTC
Wind 5 kt from the East
Temperature 29°C
Humidity 74%
Pressure 1006 hPa
Visibility 10 km or more
Few clouds at a height of 2000 ft
Scattered clouds at a height of 30000 ft

METAR: NGTA 170600Z 10005KT 9999 FEW020 SCT300 29/24 Q1006

Time: 20:30 (06:30 UTC)

Forecast

The report was made 1 hour and 10 minutes ago, at 05:20 UTC
Forecast valid from 17 at 06 UTC to 18 at 06 UTC
Wind 10 kt from the East/Southeast
Visibility 10 km or more
Few clouds at a height of 2000 ft
Probability 30% :
Temporary
from 17 at 12 UTC to 17 at 24 UTC
Visibility: 3000 m
Broken clouds at a height of 1500 ft
Few clouds at a height of 1700 ft, Cumulonimbus.
thunderstorm, rain

TAF: NGTA 170520Z 1706/1806 12010KT 9999 FEW020 PROB30 TEMPO 1712/1724 3000 TSRA BKN015 FEW017CB

Weather observations and forecasts of more than 4000 airports (METAR and TAF reports).

The available stations are represented by yellow and red dots on the map.

Hover mouse over dot to see the name of the station.

Then click to see weather observations and forecasts.

To change the map : click on the green buttons with a black cross to zoom in, on the green button with a dash to zoom out, or on the green arrows for adjacent maps.


METAR-TAF: